Time;durP1;ratioP1;P1;durP2;ratioP2;P2;SDS_P1;SDS_P2;PMS_P1;PMS_P2;Temp;Humidity;BMP_temperature;BMP_pressure;BME280_temperature;BME280_humidity;BME280_pressure;Samples;Min_cycle;Max_cycle;Signal;HPM_P1;HPM_P2
2022/06/22 00:01:51;;;;;;;0.70;0.40;;;17.30;81.90;;;;;;5082342;28;20536;-85
2022/06/22 00:04:22;;;;;;;1.07;0.40;;;17.30;82.20;;;;;;5077477;28;20467;-85
2022/06/22 00:06:54;;;;;;;0.50;0.40;;;17.20;82.30;;;;;;5075842;28;20509;-85
2022/06/22 00:09:25;;;;;;;0.50;0.43;;;17.20;82.90;;;;;;5074875;28;20526;-85
2022/06/22 00:11:52;;;;;;;5.30;0.40;;;17.20;82.60;;;;;;5070403;28;20540;-85
2022/06/22 00:14:27;;;;;;;0.50;0.30;;;17.20;83.30;;;;;;5079439;28;20506;-86
2022/06/22 00:16:56;;;;;;;0.70;0.40;;;17.20;81.70;;;;;;5071304;28;20950;-85
2022/06/22 00:19:30;;;;;;;0.70;0.50;;;17.20;81.90;;;;;;5080603;28;20912;-85
2022/06/22 00:21:57;;;;;;;0.50;0.43;;;17.20;83.30;;;;;;5073215;28;20602;-85
2022/06/22 00:24:37;;;;;;;1.60;0.40;;;17.10;82.20;;;;;;5076528;28;20601;-85
2022/06/22 00:27:17;;;;;;;0.50;0.47;;;17.10;82.70;;;;;;5071076;28;20884;-86
2022/06/22 00:30:00;;;;;;;0.77;0.43;;;17.10;82.60;;;;;;5070144;28;21141;-86
2022/06/22 00:32:29;;;;;;;1.33;0.50;;;17.20;82.50;;;;;;5069331;28;20478;-86
2022/06/22 00:34:56;;;;;;;0.60;0.40;;;17.20;81.90;;;;;;5074656;28;20465;-86
2022/06/22 00:37:28;;;;;;;0.80;0.50;;;17.20;82.80;;;;;;5069740;28;20465;-86
2022/06/22 00:40:00;;;;;;;0.53;0.33;;;17.20;81.90;;;;;;5071736;28;20880;-86
2022/06/22 00:42:31;;;;;;;0.50;0.43;;;17.20;82.00;;;;;;5078560;28;20478;-85
2022/06/22 00:45:04;;;;;;;0.60;0.50;;;17.20;82.40;;;;;;5071550;28;20982;-85
2022/06/22 00:47:34;;;;;;;0.97;0.50;;;17.20;81.60;;;;;;5070906;28;20469;-85
2022/06/22 00:50:06;;;;;;;0.93;0.63;;;17.30;81.50;;;;;;5068705;28;20479;-85
2022/06/22 00:52:38;;;;;;;0.50;0.50;;;17.30;81.90;;;;;;5069427;28;20506;-85
2022/06/22 00:55:17;;;;;;;0.77;0.50;;;17.30;80.60;;;;;;5070361;28;20534;-86
2022/06/22 00:57:49;;;;;;;1.23;0.43;;;17.50;80.60;;;;;;5074003;28;20466;-85
2022/06/22 01:00:21;;;;;;;0.50;0.43;;;17.40;80.90;;;;;;5072920;28;20589;-86
2022/06/22 01:02:54;;;;;;;0.60;0.40;;;17.40;80.10;;;;;;5076596;28;20549;-85
2022/06/22 01:05:29;;;;;;;0.50;0.40;;;17.40;80.60;;;;;;5068300;28;20602;-86
2022/06/22 01:08:09;;;;;;;1.60;0.50;;;17.30;80.80;;;;;;5069840;28;20554;-85
2022/06/22 01:10:43;;;;;;;0.60;0.57;;;17.40;80.30;;;;;;5072343;28;20459;-85
2022/06/22 01:13:19;;;;;;;0.80;0.60;;;17.30;80.80;;;;;;5070938;28;20921;-86
2022/06/22 01:15:53;;;;;;;0.87;0.50;;;17.20;81.10;;;;;;5072645;28;20463;-86
2022/06/22 01:18:25;;;;;;;0.60;0.43;;;17.20;80.80;;;;;;5069855;28;21064;-85
2022/06/22 01:20:59;;;;;;;0.67;0.50;;;17.20;81.30;;;;;;5066954;28;20456;-86
2022/06/22 01:23:51;;;;;;;0.73;0.50;;;17.20;81.90;;;;;;5074864;28;20479;-86
2022/06/22 01:26:39;;;;;;;0.60;0.60;;;17.20;81.80;;;;;;5067370;28;20476;-85
2022/06/22 01:29:13;;;;;;;0.53;0.43;;;17.20;81.40;;;;;;5068065;28;20464;-86
2022/06/22 01:31:45;;;;;;;1.03;0.93;;;17.30;81.40;;;;;;5072026;28;20491;-85
2022/06/22 01:34:17;;;;;;;1.47;0.60;;;17.20;82.30;;;;;;5071456;28;20467;-85
2022/06/22 01:36:44;;;;;;;0.90;0.60;;;17.10;82.10;;;;;;5069289;28;20460;-86
2022/06/22 01:39:13;;;;;;;0.70;0.50;;;17.10;82.30;;;;;;5067692;28;20652;-85
2022/06/22 01:41:46;;;;;;;2.73;0.40;;;17.10;81.90;;;;;;5068113;28;20499;-85
2022/06/22 01:44:22;;;;;;;0.47;0.40;;;17.20;82.00;;;;;;5067912;28;20546;-86
2022/06/22 01:47:12;;;;;;;0.90;0.50;;;17.20;82.00;;;;;;5066672;28;21009;-86
2022/06/22 01:49:44;;;;;;;0.50;0.47;;;17.20;81.20;;;;;;5069386;28;20471;-86
2022/06/22 01:52:16;;;;;;;0.60;0.40;;;17.20;81.30;;;;;;5070976;28;21065;-86
2022/06/22 01:54:51;;;;;;;0.50;0.50;;;17.20;81.30;;;;;;5068042;28;20444;-86
2022/06/22 01:57:23;;;;;;;1.33;0.50;;;17.20;80.60;;;;;;5072903;28;20482;-86
2022/06/22 01:59:57;;;;;;;0.60;0.60;;;17.30;81.10;;;;;;5069073;28;20575;-85
2022/06/22 02:02:31;;;;;;;0.50;0.50;;;17.30;81.20;;;;;;5072080;28;20507;-86
2022/06/22 02:05:03;;;;;;;0.70;0.60;;;17.30;81.00;;;;;;5067934;28;20524;-85
2022/06/22 02:07:45;;;;;;;0.53;0.50;;;17.30;81.40;;;;;;5067833;28;20464;-85
2022/06/22 02:10:42;;;;;;;0.67;0.50;;;17.40;81.30;;;;;;5069642;28;20459;-85
2022/06/22 02:13:20;;;;;;;0.60;0.50;;;17.40;81.30;;;;;;5051157;28;20610;-85
2022/06/22 02:15:56;;;;;;;0.90;0.60;;;17.20;81.00;;;;;;5071788;28;20471;-85
2022/06/22 02:18:32;;;;;;;3.03;0.50;;;17.30;82.00;;;;;;5069021;28;20466;-86
2022/06/22 02:21:01;;;;;;;0.87;0.50;;;17.30;82.50;;;;;;5069391;28;20474;-86
2022/06/22 02:23:32;;;;;;;0.83;0.43;;;17.50;82.30;;;;;;5073179;28;20474;-86
2022/06/22 02:26:15;;;;;;;0.60;0.43;;;17.50;82.30;;;;;;5066302;28;20459;-86
2022/06/22 02:28:44;;;;;;;2.30;0.50;;;17.40;82.70;;;;;;5067561;28;20549;-86
2022/06/22 02:31:13;;;;;;;1.90;0.40;;;17.30;83.60;;;;;;5075911;28;20574;-85
2022/06/22 02:33:44;;;;;;;0.70;0.70;;;17.10;84.00;;;;;;5073103;28;20543;-86
2022/06/22 02:36:13;;;;;;;0.57;0.57;;;17.20;84.40;;;;;;5070191;28;20815;-86
2022/06/22 02:38:43;;;;;;;0.80;0.60;;;17.10;85.00;;;;;;5072098;28;20561;-86
2022/06/22 02:46:45;;;;;;;0.50;0.40;;;17.00;83.90;;;;;;5071667;28;20477;-86
2022/06/22 02:49:19;;;;;;;0.53;0.50;;;17.00;83.40;;;;;;5076969;28;20462;-85
2022/06/22 02:51:49;;;;;;;0.50;0.40;;;17.00;83.50;;;;;;5073863;28;20474;-86
2022/06/22 02:54:23;;;;;;;1.33;0.60;;;17.00;83.80;;;;;;5073539;28;20471;-86
2022/06/22 02:57:01;;;;;;;0.50;0.50;;;16.90;84.50;;;;;;5075855;28;20472;-86
2022/06/22 02:59:28;;;;;;;0.80;0.43;;;16.90;86.80;;;;;;5074048;28;20927;-87
2022/06/22 03:01:56;;;;;;;0.70;0.70;;;16.80;87.50;;;;;;5071434;28;20466;-87
2022/06/22 03:04:24;;;;;;;0.77;0.50;;;16.70;88.00;;;;;;5074874;28;20973;-86
2022/06/22 03:06:55;;;;;;;0.60;0.50;;;16.70;88.20;;;;;;5071660;28;20488;-86
2022/06/22 03:09:24;;;;;;;1.87;0.60;;;16.70;86.00;;;;;;5070798;28;20447;-86
2022/06/22 03:11:55;;;;;;;0.70;0.50;;;16.70;87.20;;;;;;5073188;28;20553;-86
2022/06/22 03:14:26;;;;;;;0.60;0.50;;;16.80;87.00;;;;;;5074734;28;20898;-87
2022/06/22 03:16:58;;;;;;;1.10;1.00;;;16.70;87.10;;;;;;5074333;28;20500;-86
2022/06/22 03:19:32;;;;;;;0.60;0.50;;;16.60;86.30;;;;;;5077389;28;20536;-87
2022/06/22 03:21:59;;;;;;;1.10;0.67;;;16.50;86.80;;;;;;5071708;28;20613;-86
2022/06/22 03:24:40;;;;;;;1.93;0.60;;;16.50;86.50;;;;;;5070606;28;20446;-87
2022/06/22 03:27:14;;;;;;;0.70;0.57;;;16.50;85.40;;;;;;5067674;28;20528;-87
2022/06/22 03:29:46;;;;;;;0.57;0.53;;;16.50;84.80;;;;;;5072877;28;20458;-87
2022/06/22 03:32:24;;;;;;;1.13;0.40;;;16.60;85.10;;;;;;5069382;28;21032;-87
2022/06/22 03:34:56;;;;;;;0.50;0.40;;;16.40;84.50;;;;;;5071220;28;20987;-87
2022/06/22 03:37:28;;;;;;;1.30;0.63;;;16.50;84.90;;;;;;5071868;28;20488;-87
2022/06/22 03:40:01;;;;;;;3.83;0.67;;;16.50;84.60;;;;;;5071175;28;21047;-87
2022/06/22 03:42:32;;;;;;;0.87;0.40;;;16.50;84.90;;;;;;5071002;28;20527;-87
2022/06/22 03:45:05;;;;;;;0.53;0.43;;;16.50;84.80;;;;;;5070339;28;21050;-87
2022/06/22 03:47:40;;;;;;;1.60;0.60;;;16.50;84.90;;;;;;5073002;28;20563;-87
2022/06/22 03:50:12;;;;;;;1.10;0.80;;;16.50;85.70;;;;;;5072877;28;20907;-87
2022/06/22 03:52:49;;;;;;;3.03;0.63;;;16.40;85.90;;;;;;5074526;28;20482;-87
2022/06/22 03:55:20;;;;;;;0.60;0.50;;;16.40;86.10;;;;;;5072451;28;20562;-87
2022/06/22 03:57:52;;;;;;;0.50;0.50;;;16.50;85.20;;;;;;5076117;28;20455;-87
2022/06/22 04:00:21;;;;;;;0.50;0.50;;;16.50;85.20;;;;;;5076377;28;20493;-87
2022/06/22 04:02:50;;;;;;;1.57;0.40;;;16.50;85.80;;;;;;5070776;28;20589;-87
2022/06/22 04:05:19;;;;;;;0.70;0.57;;;16.50;85.50;;;;;;5068467;28;20961;-87
2022/06/22 04:07:47;;;;;;;0.50;0.47;;;16.60;85.60;;;;;;5068586;28;20482;-87
2022/06/22 04:10:31;;;;;;;0.80;0.70;;;16.60;84.40;;;;;;5076909;28;20480;-87
2022/06/22 04:12:59;;;;;;;0.80;0.70;;;16.60;84.90;;;;;;5068490;28;20484;-88
2022/06/22 04:15:31;;;;;;;3.80;0.63;;;16.60;84.80;;;;;;5070109;28;20473;-87
2022/06/22 04:18:02;;;;;;;0.70;0.60;;;16.60;84.70;;;;;;5073647;28;20519;-87
2022/06/22 04:20:54;;;;;;;1.90;0.50;;;16.70;85.30;;;;;;5072942;28;20481;-86
2022/06/22 04:23:28;;;;;;;0.60;0.60;;;16.60;85.10;;;;;;5070027;28;20472;-87
2022/06/22 04:25:59;;;;;;;0.50;0.40;;;16.50;85.90;;;;;;5073913;28;20497;-87
2022/06/22 04:28:30;;;;;;;0.73;0.60;;;16.50;85.70;;;;;;5068777;28;20539;-86
2022/06/22 04:30:58;;;;;;;1.10;0.70;;;16.40;86.00;;;;;;5074484;28;20467;-87
2022/06/22 04:33:33;;;;;;;5.30;0.70;;;16.50;86.70;;;;;;5075396;28;20457;-87
2022/06/22 04:36:03;;;;;;;0.77;0.50;;;16.50;85.70;;;;;;5070129;28;20501;-87
2022/06/22 04:38:35;;;;;;;0.50;0.50;;;16.50;85.60;;;;;;5072064;28;21010;-87
2022/06/22 04:41:07;;;;;;;0.70;0.50;;;16.60;85.80;;;;;;5071924;28;20540;-87
2022/06/22 04:43:36;;;;;;;1.73;0.60;;;16.60;85.90;;;;;;5071568;28;20554;-91
2022/06/22 04:46:07;;;;;;;0.83;0.80;;;16.60;85.00;;;;;;5081105;28;21219;-86
2022/06/22 04:48:40;;;;;;;0.53;0.50;;;16.90;85.30;;;;;;5079480;28;20458;-87
2022/06/22 04:51:12;;;;;;;3.73;0.90;;;17.10;85.10;;;;;;5077559;28;20466;-87
2022/06/22 04:53:43;;;;;;;0.80;0.60;;;17.40;83.80;;;;;;5078170;28;20531;-87
2022/06/22 04:56:13;;;;;;;0.70;0.50;;;17.60;83.80;;;;;;5079059;28;20537;-86
2022/06/22 04:58:45;;;;;;;0.63;0.60;;;17.60;82.70;;;;;;5076648;28;20466;-86
2022/06/22 05:01:18;;;;;;;0.80;0.80;;;17.70;82.10;;;;;;5080618;28;20486;-87
2022/06/22 05:03:47;;;;;;;1.47;0.50;;;17.90;81.90;;;;;;5077986;28;20599;-86
2022/06/22 05:06:18;;;;;;;0.70;0.60;;;17.80;83.50;;;;;;5077611;28;20474;-87
2022/06/22 05:08:52;;;;;;;1.27;0.60;;;17.90;81.20;;;;;;5074333;28;20520;-86
2022/06/22 05:11:25;;;;;;;0.70;0.70;;;17.80;83.10;;;;;;5078307;28;20877;-86
2022/06/22 05:13:55;;;;;;;1.00;0.80;;;18.00;81.00;;;;;;5085217;28;20520;-86
2022/06/22 05:16:25;;;;;;;1.70;0.60;;;18.10;81.30;;;;;;5082950;28;20470;-86
2022/06/22 05:18:56;;;;;;;0.70;0.60;;;18.40;81.90;;;;;;5086291;28;20446;-86
2022/06/22 05:21:39;;;;;;;0.90;0.50;;;18.40;80.50;;;;;;5082749;28;20482;-85
2022/06/22 05:24:11;;;;;;;0.80;0.60;;;18.40;80.80;;;;;;5077093;28;20450;-86
2022/06/22 05:26:41;;;;;;;0.70;0.60;;;18.40;81.00;;;;;;5083212;28;20463;-85
2022/06/22 05:29:13;;;;;;;0.80;0.60;;;18.60;80.80;;;;;;5084522;28;20455;-86
2022/06/22 05:31:47;;;;;;;0.50;0.50;;;18.50;80.80;;;;;;5091408;28;20460;-86
2022/06/22 05:34:19;;;;;;;2.80;0.60;;;18.50;80.00;;;;;;5095051;28;20537;-86
2022/06/22 05:36:51;;;;;;;0.60;0.60;;;18.70;80.30;;;;;;5090370;28;20487;-87
2022/06/22 05:39:18;;;;;;;0.50;0.50;;;18.90;79.70;;;;;;5084969;28;20781;-86
2022/06/22 05:41:48;;;;;;;0.70;0.60;;;18.80;79.70;;;;;;5078249;28;20909;-87
2022/06/22 05:44:18;;;;;;;1.53;0.53;;;18.70;79.60;;;;;;5083362;28;20969;-87
2022/06/22 05:46:50;;;;;;;2.60;0.60;;;18.80;78.80;;;;;;5081805;28;20461;-86
2022/06/22 05:49:20;;;;;;;0.60;0.50;;;18.50;80.10;;;;;;5082634;28;20490;-86
2022/06/22 05:51:55;;;;;;;0.60;0.50;;;18.40;80.20;;;;;;5085179;28;20455;-87
2022/06/22 05:54:28;;;;;;;0.60;0.50;;;18.50;80.30;;;;;;5081431;28;20531;-87
2022/06/22 05:57:04;;;;;;;0.50;0.50;;;18.70;80.80;;;;;;5076514;28;20531;-87
2022/06/22 05:59:38;;;;;;;14.50;0.90;;;18.80;78.80;;;;;;5066637;28;20467;-87
2022/06/22 06:02:08;;;;;;;0.60;0.43;;;18.80;79.20;;;;;;5070573;28;20464;-87
2022/06/22 06:04:42;;;;;;;1.37;0.70;;;19.00;79.10;;;;;;5072190;28;20495;-87
2022/06/22 06:07:19;;;;;;;2.30;1.43;;;19.40;79.30;;;;;;5069167;28;20469;-87
2022/06/22 06:09:46;;;;;;;0.90;0.50;;;19.40;77.20;;;;;;5071239;28;20461;-87
2022/06/22 06:12:19;;;;;;;0.80;0.67;;;19.50;80.00;;;;;;5066449;28;20507;-87
2022/06/22 06:14:50;;;;;;;3.40;0.93;;;19.60;78.40;;;;;;5070680;28;20454;-87
2022/06/22 06:17:24;;;;;;;0.60;0.60;;;19.70;79.30;;;;;;5070106;28;20509;-87
2022/06/22 06:19:54;;;;;;;1.73;0.60;;;19.90;79.60;;;;;;5071041;28;20986;-87
2022/06/22 06:22:22;;;;;;;0.97;0.60;;;20.00;76.50;;;;;;5068062;28;20467;-87
2022/06/22 06:27:55;;;;;;;0.50;0.50;;;19.70;78.40;;;;;;5029041;28;20995;-87
2022/06/22 06:30:27;;;;;;;0.80;0.53;;;20.00;77.90;;;;;;5068087;28;20506;-87
2022/06/22 06:32:59;;;;;;;0.97;0.60;;;20.10;79.90;;;;;;5070597;28;20549;-87
2022/06/22 06:35:33;;;;;;;0.70;0.60;;;20.10;78.20;;;;;;5072062;28;20527;-87
2022/06/22 06:38:10;;;;;;;1.43;0.53;;;20.10;78.50;;;;;;5071888;28;20473;-87
2022/06/22 06:40:44;;;;;;;0.50;0.50;;;20.20;78.10;;;;;;5077155;28;20497;-88
2022/06/22 06:43:31;;;;;;;1.10;0.90;;;20.40;76.50;;;;;;5070714;28;20548;-88
2022/06/22 06:46:00;;;;;;;0.83;0.70;;;20.40;77.40;;;;;;5073668;28;20519;-88
2022/06/22 06:48:29;;;;;;;1.93;0.50;;;20.90;78.20;;;;;;5066701;28;20952;-88
2022/06/22 06:51:02;;;;;;;1.27;0.50;;;21.10;75.30;;;;;;5067793;28;20468;-88
2022/06/22 06:53:34;;;;;;;1.40;0.60;;;21.10;76.10;;;;;;5066848;28;20473;-88
2022/06/22 06:56:05;;;;;;;9.43;0.73;;;21.20;77.60;;;;;;5068243;28;20470;-88
2022/06/22 06:58:41;;;;;;;0.90;0.70;;;21.20;77.30;;;;;;5069480;28;20557;-88
2022/06/22 07:01:16;;;;;;;1.23;0.77;;;21.50;75.70;;;;;;5070560;28;20470;-88
2022/06/22 07:03:44;;;;;;;1.40;0.93;;;21.50;74.40;;;;;;5073252;28;20456;-88
2022/06/22 07:06:13;;;;;;;1.07;0.70;;;21.80;74.50;;;;;;5072963;28;20709;-88
2022/06/22 07:08:44;;;;;;;2.70;0.60;;;21.50;72.70;;;;;;5066761;28;20467;-88
2022/06/22 07:11:15;;;;;;;0.70;0.57;;;21.80;74.30;;;;;;5071963;28;20546;-86
2022/06/22 07:13:48;;;;;;;0.60;0.60;;;21.90;72.10;;;;;;5067975;28;20519;-86
2022/06/22 07:16:20;;;;;;;0.50;0.50;;;21.90;72.80;;;;;;5072645;28;20487;-86
2022/06/22 07:18:51;;;;;;;0.70;0.70;;;21.80;73.90;;;;;;5073357;28;20899;-86
2022/06/22 07:21:25;;;;;;;1.20;0.60;;;21.90;70.70;;;;;;5074633;28;20540;-86
2022/06/22 07:23:59;;;;;;;0.50;0.43;;;22.20;70.70;;;;;;5075695;28;21222;-87
2022/06/22 07:26:38;;;;;;;0.80;0.70;;;22.50;70.10;;;;;;5075955;28;20462;-87
2022/06/22 07:29:13;;;;;;;0.60;0.60;;;22.70;73.10;;;;;;5073472;28;20448;-86
2022/06/22 07:31:46;;;;;;;0.90;0.80;;;22.60;73.30;;;;;;5074786;28;20553;-86
2022/06/22 07:34:19;;;;;;;17.77;1.63;;;22.60;71.90;;;;;;5072108;28;20477;-86
2022/06/22 07:36:54;;;;;;;0.60;0.60;;;22.50;70.40;;;;;;5073475;28;20571;-86
2022/06/22 07:39:28;;;;;;;4.10;0.70;;;22.90;71.50;;;;;;5074567;28;20472;-86
2022/06/22 07:41:55;;;;;;;0.80;0.80;;;22.90;72.20;;;;;;5071561;28;20570;-86
2022/06/22 07:44:26;;;;;;;0.80;0.80;;;23.50;69.30;;;;;;5074342;28;20462;-87
2022/06/22 07:47:00;;;;;;;0.87;0.70;;;23.80;68.30;;;;;;5069480;28;20464;-87
2022/06/22 07:49:32;;;;;;;0.93;0.53;;;23.30;71.80;;;;;;5072901;28;21038;-87
2022/06/22 07:52:03;;;;;;;0.67;0.50;;;23.50;70.60;;;;;;5069944;28;20471;-86
2022/06/22 07:54:33;;;;;;;2.00;0.70;;;23.90;67.50;;;;;;5075099;28;20440;-87
2022/06/22 07:57:11;;;;;;;0.70;0.60;;;24.40;66.90;;;;;;5078604;28;20490;-86
2022/06/22 07:59:43;;;;;;;1.53;0.60;;;24.20;66.30;;;;;;5079802;28;21140;-86
2022/06/22 08:02:14;;;;;;;0.60;0.60;;;23.90;65.80;;;;;;5075160;28;20578;-87
2022/06/22 08:04:46;;;;;;;1.17;0.97;;;23.20;69.90;;;;;;5075383;28;21136;-87
2022/06/22 08:07:19;;;;;;;5.23;0.70;;;23.20;71.60;;;;;;5070744;28;20858;-86
2022/06/22 08:09:54;;;;;;;0.80;0.80;;;23.30;72.70;;;;;;5077587;28;20555;-86
2022/06/22 08:12:25;;;;;;;0.83;0.83;;;23.70;69.60;;;;;;5081461;28;20515;-87
2022/06/22 08:14:54;;;;;;;1.17;1.07;;;23.70;70.50;;;;;;5084014;28;20522;-87
2022/06/22 08:17:40;;;;;;;0.90;0.70;;;23.70;71.20;;;;;;5077346;28;20980;-87
2022/06/22 08:20:09;;;;;;;0.70;0.70;;;23.80;68.60;;;;;;5073106;28;20532;-87
2022/06/22 08:22:37;;;;;;;1.30;0.80;;;23.80;71.60;;;;;;5067392;28;20728;-87
2022/06/22 08:25:07;;;;;;;0.70;0.63;;;24.00;72.10;;;;;;5066647;28;20447;-87
2022/06/22 08:27:35;;;;;;;1.10;0.83;;;24.60;70.70;;;;;;5072678;28;20539;-87
2022/06/22 08:30:02;;;;;;;1.57;1.17;;;24.90;67.80;;;;;;5077634;28;21030;-88
2022/06/22 08:32:33;;;;;;;1.33;0.77;;;24.90;68.20;;;;;;5097851;28;20446;-87
2022/06/22 08:35:06;;;;;;;2.20;0.90;;;24.50;67.20;;;;;;5088494;28;20960;-86
2022/06/22 08:37:39;;;;;;;0.70;0.70;;;24.50;68.30;;;;;;5097964;28;20462;-87
2022/06/22 08:40:14;;;;;;;0.50;0.50;;;25.10;69.60;;;;;;5080011;28;20549;-87
2022/06/22 08:42:53;;;;;;;0.87;0.77;;;25.20;67.60;;;;;;5074278;28;20577;-87
2022/06/22 08:45:38;;;;;;;1.07;0.60;;;25.20;64.50;;;;;;5078454;28;20877;-87
2022/06/22 08:48:36;;;;;;;3.03;0.90;;;24.90;66.20;;;;;;5073791;28;20467;-86
2022/06/22 08:51:34;;;;;;;4.27;0.80;;;25.30;68.20;;;;;;5078710;28;20520;-86
2022/06/22 08:54:23;;;;;;;0.90;0.90;;;25.30;69.60;;;;;;5078328;28;20447;-87
2022/06/22 08:56:59;;;;;;;0.70;0.57;;;24.90;66.60;;;;;;5077015;28;20485;-86
2022/06/22 09:00:06;;;;;;;3.50;1.10;;;24.70;69.60;;;;;;5070904;28;20467;-86
2022/06/22 09:02:59;;;;;;;12.00;1.13;;;24.90;67.40;;;;;;5070659;28;20603;-86
2022/06/22 09:06:10;;;;;;;1.33;1.00;;;25.20;72.20;;;;;;5077112;28;20933;-87
2022/06/22 09:09:17;;;;;;;0.60;0.60;;;24.90;70.90;;;;;;5035168;28;20467;-86
2022/06/22 09:11:56;;;;;;;0.87;0.67;;;25.20;68.30;;;;;;5072300;28;20852;-87
2022/06/22 09:15:00;;;;;;;0.97;0.80;;;25.30;68.20;;;;;;5073275;28;20539;-86
2022/06/22 09:17:48;;;;;;;0.80;0.70;;;25.50;67.30;;;;;;5068078;28;20465;-86
2022/06/22 09:20:37;;;;;;;2.20;1.43;;;25.30;69.00;;;;;;5072179;28;20480;-87
2022/06/22 09:23:16;;;;;;;0.73;0.67;;;25.40;69.40;;;;;;5075864;28;20511;-86
2022/06/22 09:25:48;;;;;;;2.30;1.03;;;25.20;70.50;;;;;;5071548;28;21247;-86
2022/06/22 09:28:24;;;;;;;5.33;0.67;;;25.30;75.00;;;;;;5073885;28;20455;-87
2022/06/22 09:31:32;;;;;;;0.93;0.80;;;25.10;71.70;;;;;;5078656;28;20495;-87
2022/06/22 09:34:13;;;;;;;0.80;0.80;;;25.40;74.80;;;;;;5063003;28;20459;-86
2022/06/22 09:37:16;;;;;;;1.23;1.13;;;25.50;68.90;;;;;;5076148;28;20442;-87
2022/06/22 09:40:09;;;;;;;0.80;0.77;;;25.70;71.30;;;;;;5061527;28;20466;-87
2022/06/22 09:43:17;;;;;;;1.37;0.80;;;26.10;70.30;;;;;;5064770;28;20518;-87
2022/06/22 09:46:00;;;;;;;0.90;0.60;;;26.50;63.40;;;;;;5073570;28;20512;-87
2022/06/22 09:48:50;;;;;;;1.10;0.93;;;26.80;64.40;;;;;;5074526;28;20473;-86
2022/06/22 09:51:39;;;;;;;4.73;0.80;;;27.40;63.20;;;;;;5073637;28;20536;-87
2022/06/22 09:57:32;;;;;;;1.93;1.10;;;27.60;66.20;;;;;;5075349;28;20454;-88
2022/06/22 10:00:09;;;;;;;1.40;0.83;;;27.60;65.80;;;;;;5077586;28;21097;-88
2022/06/22 10:03:18;;;;;;;0.93;0.83;;;27.30;62.70;;;;;;5071044;28;20479;-88
2022/06/22 10:06:17;;;;;;;0.97;0.80;;;27.30;67.20;;;;;;4994015;28;20477;-88
2022/06/22 10:09:11;;;;;;;1.20;0.90;;;27.50;63.60;;;;;;5075388;28;20489;-88
2022/06/22 10:11:46;;;;;;;4.53;0.90;;;27.80;63.70;;;;;;5077092;28;20487;-88
2022/06/22 10:14:58;;;;;;;1.20;0.90;;;28.00;60.90;;;;;;5076767;28;20486;-88
2022/06/22 10:17:34;;;;;;;0.80;0.67;;;27.80;61.60;;;;;;5083601;28;20463;-88
2022/06/22 10:20:20;;;;;;;1.23;0.90;;;27.80;59.90;;;;;;5075063;28;20469;-88
2022/06/22 10:22:59;;;;;;;2.00;1.00;;;28.10;63.40;;;;;;5068882;28;20501;-88
2022/06/22 10:25:43;;;;;;;1.10;0.70;;;27.90;59.80;;;;;;5069719;28;20478;-88
2022/06/22 10:28:32;;;;;;;0.70;0.70;;;27.70;62.80;;;;;;5073279;28;20455;-88
2022/06/22 10:31:08;;;;;;;0.70;0.70;;;28.20;58.70;;;;;;5066206;28;20452;-87
2022/06/22 10:34:14;;;;;;;1.53;0.87;;;28.10;60.30;;;;;;5071209;28;20459;-88
2022/06/22 10:37:02;;;;;;;3.23;0.87;;;28.30;60.50;;;;;;5068633;28;20459;-86
2022/06/22 10:39:46;;;;;;;1.00;0.80;;;28.50;57.70;;;;;;5064243;28;21328;-86
2022/06/22 10:45:26;;;;;;;3.10;0.90;;;28.50;58.90;;;;;;5072608;28;20483;-86
2022/06/22 10:48:27;;;;;;;2.13;1.00;;;28.50;57.40;;;;;;5067171;28;20878;-86
2022/06/22 10:51:04;;;;;;;0.70;0.70;;;28.20;58.30;;;;;;5062351;28;20456;-87
2022/06/22 10:54:01;;;;;;;1.37;0.80;;;28.40;57.50;;;;;;5073142;28;20554;-87
2022/06/22 10:56:48;;;;;;;1.37;1.00;;;28.70;58.40;;;;;;5071245;28;20984;-86
2022/06/22 10:59:32;;;;;;;1.03;0.80;;;28.70;61.40;;;;;;5077317;28;20470;-86
2022/06/22 11:02:27;;;;;;;1.33;0.73;;;29.40;64.00;;;;;;5073633;28;20486;-86
2022/06/22 11:05:23;;;;;;;2.23;0.80;;;28.60;60.90;;;;;;5078671;28;20550;-86
2022/06/22 11:08:10;;;;;;;2.60;0.90;;;28.70;61.10;;;;;;5085439;28;20577;-87
2022/06/22 11:11:11;;;;;;;5.37;1.00;;;29.20;60.90;;;;;;5078962;28;20471;-87
2022/06/22 11:14:01;;;;;;;1.30;1.00;;;29.20;61.40;;;;;;5072494;28;20523;-87
2022/06/22 11:17:02;;;;;;;0.80;0.80;;;29.10;58.90;;;;;;5049365;28;20451;-86
2022/06/22 11:19:57;;;;;;;3.47;0.70;;;28.40;60.20;;;;;;5081437;28;20546;-86
2022/06/22 11:22:31;;;;;;;2.40;0.80;;;27.80;61.40;;;;;;5076997;28;20512;-86
2022/06/22 11:31:42;;;;;;;4.20;0.70;;;27.80;62.40;;;;;;5100561;28;20523;-86
2022/06/22 11:34:37;;;;;;;0.73;0.73;;;27.90;60.80;;;;;;5094770;28;20438;-87
2022/06/22 11:37:09;;;;;;;1.33;0.80;;;28.00;59.90;;;;;;5096783;28;20456;-86
2022/06/22 11:39:53;;;;;;;0.97;0.80;;;27.70;63.90;;;;;;5080355;28;20515;-87
2022/06/22 11:42:28;;;;;;;1.00;0.90;;;27.50;63.60;;;;;;5078775;28;20486;-87
2022/06/22 11:48:28;;;;;;;0.80;0.80;;;27.40;61.60;;;;;;5080379;28;20473;-86
2022/06/22 11:51:07;;;;;;;1.90;0.70;;;27.50;66.20;;;;;;5077906;28;20451;-87
2022/06/22 11:54:02;;;;;;;1.10;0.80;;;27.40;64.90;;;;;;5084093;28;20449;-87
2022/06/22 11:56:41;;;;;;;3.03;0.80;;;26.60;66.10;;;;;;5077263;28;20455;-87
2022/06/22 11:59:23;;;;;;;3.40;1.10;;;26.70;69.30;;;;;;5073183;28;20462;-87
2022/06/22 12:02:05;;;;;;;2.00;1.00;;;26.70;67.60;;;;;;5077498;28;20491;-86
2022/06/22 12:04:58;;;;;;;1.23;0.80;;;26.70;65.50;;;;;;5081469;28;20479;-87
2022/06/22 12:07:55;;;;;;;0.70;0.60;;;26.40;68.50;;;;;;5079254;28;20487;-86
2022/06/22 12:10:41;;;;;;;1.90;1.03;;;26.40;67.50;;;;;;5076324;28;20859;-86
2022/06/22 12:13:36;;;;;;;1.47;0.83;;;26.40;69.40;;;;;;5073549;28;20507;-86
2022/06/22 12:16:16;;;;;;;1.77;0.73;;;26.20;69.10;;;;;;5067838;28;20981;-86
2022/06/22 12:19:05;;;;;;;0.70;0.70;;;26.20;69.80;;;;;;5069401;28;20634;-86
2022/06/22 12:21:49;;;;;;;1.10;0.83;;;26.40;69.90;;;;;;5073008;28;21165;-84
2022/06/22 12:24:28;;;;;;;2.60;0.80;;;26.50;67.40;;;;;;5075463;28;20470;-87
2022/06/22 12:27:06;;;;;;;0.70;0.70;;;26.30;66.90;;;;;;5072771;28;20578;-94
2022/06/22 12:29:53;;;;;;;1.07;0.70;;;26.10;68.50;;;;;;5069034;28;20451;-86
2022/06/22 12:32:24;;;;;;;1.13;0.83;;;26.30;67.60;;;;;;5069684;28;20464;-86
2022/06/22 12:35:00;;;;;;;0.67;0.67;;;26.50;68.00;;;;;;5077431;28;20443;-86
2022/06/22 12:37:31;;;;;;;0.90;0.77;;;26.60;68.80;;;;;;5080089;28;20467;-86
2022/06/22 12:40:04;;;;;;;0.90;0.90;;;26.70;69.10;;;;;;5075878;28;20482;-87
2022/06/22 12:42:52;;;;;;;2.03;0.83;;;26.80;68.80;;;;;;5080146;28;20482;-86
2022/06/22 12:45:37;;;;;;;1.80;0.80;;;26.80;68.30;;;;;;5080886;28;20464;-87
2022/06/22 12:48:35;;;;;;;1.07;0.80;;;26.60;67.40;;;;;;5085802;28;21236;-87
2022/06/22 12:51:15;;;;;;;0.90;0.80;;;26.90;68.30;;;;;;5082097;28;20473;-86
2022/06/22 12:53:45;;;;;;;0.80;0.80;;;27.20;69.00;;;;;;5074376;28;20459;-86
2022/06/22 12:56:16;;;;;;;0.93;0.80;;;27.10;68.00;;;;;;5077674;28;21126;-86
2022/06/22 12:58:49;;;;;;;1.00;1.00;;;26.80;68.80;;;;;;5081650;28;20493;-86
2022/06/22 13:01:17;;;;;;;1.53;0.93;;;26.60;70.30;;;;;;5086367;28;21312;-87
2022/06/22 13:03:48;;;;;;;1.10;0.90;;;26.60;71.00;;;;;;5074538;28;20505;-86
2022/06/22 13:06:16;;;;;;;1.13;0.90;;;26.70;68.30;;;;;;5076408;28;20473;-85
2022/06/22 13:08:45;;;;;;;2.13;0.90;;;26.70;68.20;;;;;;5077619;28;20493;-86
2022/06/22 13:11:16;;;;;;;0.93;0.60;;;27.00;69.10;;;;;;5075957;28;20470;-86
2022/06/22 13:13:52;;;;;;;4.73;0.80;;;27.10;66.00;;;;;;5077809;28;20562;-88
2022/06/22 13:16:23;;;;;;;0.80;0.80;;;27.40;67.50;;;;;;5076181;28;20485;-86
2022/06/22 13:19:00;;;;;;;0.80;0.80;;;27.50;64.90;;;;;;5075629;28;20548;-86
2022/06/22 13:21:34;;;;;;;4.10;1.00;;;27.40;65.30;;;;;;5080567;28;20466;-87
2022/06/22 13:24:09;;;;;;;4.93;0.70;;;27.40;67.30;;;;;;5073617;28;20938;-88
2022/06/22 13:26:50;;;;;;;0.80;0.80;;;27.20;67.90;;;;;;5079720;28;20446;-87
2022/06/22 13:29:26;;;;;;;2.00;0.87;;;27.30;67.40;;;;;;5078168;28;20485;-86
2022/06/22 13:31:57;;;;;;;1.13;1.03;;;27.10;66.30;;;;;;5078147;28;20496;-87
2022/06/22 13:34:29;;;;;;;0.90;0.90;;;27.30;67.30;;;;;;5074632;28;20451;-89
2022/06/22 13:37:08;;;;;;;1.00;1.00;;;27.50;68.80;;;;;;5079862;28;20443;-87
2022/06/22 13:39:45;;;;;;;1.60;0.77;;;27.60;65.70;;;;;;5079799;28;20459;-87
2022/06/22 13:42:25;;;;;;;1.10;1.00;;;28.00;66.00;;;;;;5083107;28;20567;-88
2022/06/22 13:45:11;;;;;;;0.70;0.70;;;28.00;66.70;;;;;;5078686;28;22032;-87
2022/06/22 13:48:20;;;;;;;0.80;0.80;;;28.10;64.30;;;;;;5072384;28;20458;-87
2022/06/22 13:51:40;;;;;;;1.53;0.73;;;28.00;65.80;;;;;;5079144;28;20522;-87
2022/06/22 13:54:43;;;;;;;3.80;0.90;;;28.00;62.90;;;;;;5071236;28;20463;-87
2022/06/22 13:57:16;;;;;;;0.90;0.80;;;28.10;64.10;;;;;;5076060;28;20462;-87
2022/06/22 13:59:52;;;;;;;0.70;0.70;;;28.10;65.80;;;;;;5074293;28;20455;-88
2022/06/22 14:02:31;;;;;;;1.07;0.90;;;28.30;64.40;;;;;;5075907;28;20632;-87